PWSweather.com
Personal Weather Stations
Station Observations
STWO1
East Side, Stillwater, OK 74075

East SideStillwater, OK 74075

Lat: 36.1242949, Lon: -97.044042

Elevation: 942

Station Type: Davis VP2

http://stillwaterweather.com

High Low Average
Temperature 97.8°F36.6°C 76.5°F24.7°C 87.5°F30.8°C
Dew Point 77.0°F25.0°C 70.6°F21.4°C 73.4°F23.0°C
Winds 9.2 mph 14.8 kmh Calm Calm 4.0 mph S6.4 kmh S
Wind Gusts 16.1 mph25.9 kmh -- 6.0 mph9.7 kmh
Humidity 89% 42% 65%
Pressure 30.05 in1017.6 mb 29.93 in1013.5 mb -
Precipitation 0.00 in0.0 mm - -
Hour Temp Dew Point Humidity Winds Wind Gusts Pressure Precip Precip Rate Daily Precip Total
12:00 AM 82.4°F28.0°C 72.9°F22.7°C 73% 2.3 mph SSE3.7 kmh SSE 4.6 mph7.4 kmh 29.99 in1015.6 mb - 0.00 in0.0 mm 0.00 in0.0 mm
12:10 AM 82.1°F27.8°C 72.6°F22.6°C 73% 3.5 mph SSE5.6 kmh SSE 5.8 mph9.3 kmh 30.00 in1015.9 mb - 0.00 in0.0 mm 0.00 in0.0 mm
12:20 AM 82.0°F27.8°C 72.9°F22.7°C 74% 2.3 mph SSE3.7 kmh SSE 3.5 mph5.6 kmh 30.00 in1015.9 mb - 0.00 in0.0 mm 0.00 in0.0 mm
12:30 AM 81.9°F27.7°C 73.2°F22.9°C 75% 3.5 mph SSE5.6 kmh SSE 4.6 mph7.4 kmh 30.00 in1015.9 mb - 0.00 in0.0 mm 0.00 in0.0 mm
12:40 AM 81.8°F27.7°C 73.1°F22.8°C 75% 3.5 mph SSE5.6 kmh SSE 4.6 mph7.4 kmh 30.00 in1015.9 mb - 0.00 in0.0 mm 0.00 in0.0 mm
12:50 AM 81.7°F27.6°C 73.0°F22.8°C 75% 1.2 mph SSE1.9 kmh SSE 3.5 mph5.6 kmh 30.01 in1016.3 mb - 0.00 in0.0 mm 0.00 in0.0 mm
01:00 AM 81.6°F27.6°C 72.9°F22.7°C 75% 2.3 mph SSE3.7 kmh SSE 3.5 mph5.6 kmh 30.01 in1016.3 mb - 0.00 in0.0 mm 0.00 in0.0 mm
01:10 AM 81.5°F27.5°C 73.2°F22.9°C 76% 1.2 mph SSE1.9 kmh SSE 2.3 mph3.7 kmh 30.01 in1016.3 mb - 0.00 in0.0 mm 0.00 in0.0 mm
01:20 AM 81.4°F27.4°C 73.1°F22.8°C 76% Calm Calm -- 30.01 in1016.3 mb - 0.00 in0.0 mm 0.00 in0.0 mm
01:30 AM 81.2°F27.3°C 73.3°F22.9°C 77% 2.3 mph SSE3.7 kmh SSE 2.3 mph3.7 kmh 30.01 in1016.3 mb - 0.00 in0.0 mm 0.00 in0.0 mm
01:40 AM 81.0°F27.2°C 73.1°F22.8°C 77% 1.2 mph SSE1.9 kmh SSE 4.6 mph7.4 kmh 30.01 in1016.3 mb - 0.00 in0.0 mm 0.00 in0.0 mm
01:50 AM 80.8°F27.1°C 73.3°F22.9°C 78% 1.2 mph SSE1.9 kmh SSE 3.5 mph5.6 kmh 30.01 in1016.3 mb - 0.00 in0.0 mm 0.00 in0.0 mm
02:00 AM 80.6°F27.0°C 73.1°F22.8°C 78% 2.3 mph SSE3.7 kmh SSE 4.6 mph7.4 kmh 30.01 in1016.3 mb - 0.00 in0.0 mm 0.00 in0.0 mm
02:10 AM 80.3°F26.8°C 73.2°F22.9°C 79% 2.3 mph SSE3.7 kmh SSE 4.6 mph7.4 kmh 30.01 in1016.3 mb - 0.00 in0.0 mm 0.00 in0.0 mm
02:20 AM 80.1°F26.7°C 73.0°F22.8°C 79% 1.2 mph SSE1.9 kmh SSE 2.3 mph3.7 kmh 30.01 in1016.3 mb - 0.00 in0.0 mm 0.00 in0.0 mm
02:30 AM 80.0°F26.7°C 73.3°F22.9°C 80% 2.3 mph SSE3.7 kmh SSE 2.3 mph3.7 kmh 30.01 in1016.3 mb - 0.00 in0.0 mm 0.00 in0.0 mm
02:40 AM 79.9°F26.6°C 73.2°F22.9°C 80% Calm Calm -- 30.01 in1016.3 mb - 0.00 in0.0 mm 0.00 in0.0 mm
02:50 AM 79.6°F26.4°C 72.9°F22.7°C 80% 1.2 mph SSE1.9 kmh SSE 2.3 mph3.7 kmh 30.01 in1016.3 mb - 0.00 in0.0 mm 0.00 in0.0 mm
03:00 AM 79.3°F26.3°C 73.0°F22.8°C 81% 3.5 mph SSE5.6 kmh SSE 5.8 mph9.3 kmh 30.00 in1015.9 mb - 0.00 in0.0 mm 0.00 in0.0 mm
03:10 AM 79.1°F26.2°C 73.1°F22.8°C 82% Calm Calm -- 30.00 in1015.9 mb - 0.00 in0.0 mm 0.00 in0.0 mm
03:20 AM 78.9°F26.1°C 72.9°F22.7°C 82% Calm Calm 3.5 mph5.6 kmh 30.00 in1015.9 mb - 0.00 in0.0 mm 0.00 in0.0 mm
03:30 AM 78.7°F25.9°C 73.1°F22.8°C 83% 1.2 mph SSE1.9 kmh SSE 2.3 mph3.7 kmh 30.00 in1015.9 mb - 0.00 in0.0 mm 0.00 in0.0 mm
03:40 AM 78.5°F25.8°C 72.9°F22.7°C 83% Calm Calm 1.2 mph1.9 kmh 30.01 in1016.3 mb - 0.00 in0.0 mm 0.00 in0.0 mm
03:50 AM 78.4°F25.8°C 72.8°F22.7°C 83% Calm Calm -- 30.00 in1015.9 mb - 0.00 in0.0 mm 0.00 in0.0 mm
04:00 AM 78.2°F25.7°C 73.0°F22.8°C 84% Calm Calm 3.5 mph5.6 kmh 30.01 in1016.3 mb - 0.00 in0.0 mm 0.00 in0.0 mm
04:10 AM 78.1°F25.6°C 72.9°F22.7°C 84% Calm Calm 3.5 mph5.6 kmh 30.00 in1015.9 mb - 0.00 in0.0 mm 0.00 in0.0 mm
04:20 AM 78.0°F25.6°C 72.8°F22.7°C 84% Calm Calm 1.2 mph1.9 kmh 30.00 in1015.9 mb - 0.00 in0.0 mm 0.00 in0.0 mm
04:30 AM 77.9°F25.5°C 73.0°F22.8°C 85% 1.2 mph SSE1.9 kmh SSE 2.3 mph3.7 kmh 30.00 in1015.9 mb - 0.00 in0.0 mm 0.00 in0.0 mm
04:40 AM 77.8°F25.4°C 72.9°F22.7°C 85% Calm Calm 1.2 mph1.9 kmh 30.00 in1015.9 mb - 0.00 in0.0 mm 0.00 in0.0 mm
04:50 AM 77.7°F25.4°C 72.8°F22.7°C 85% 1.2 mph SSE1.9 kmh SSE 3.5 mph5.6 kmh 30.01 in1016.3 mb - 0.00 in0.0 mm 0.00 in0.0 mm
05:00 AM 77.5°F25.3°C 72.7°F22.6°C 85% 1.2 mph SSE1.9 kmh SSE 1.2 mph1.9 kmh 30.01 in1016.3 mb - 0.00 in0.0 mm 0.00 in0.0 mm
05:10 AM 77.4°F25.2°C 72.9°F22.7°C 86% Calm Calm 2.3 mph3.7 kmh 30.01 in1016.3 mb - 0.00 in0.0 mm 0.00 in0.0 mm
05:20 AM 77.3°F25.2°C 72.8°F22.7°C 86% Calm Calm 1.2 mph1.9 kmh 30.01 in1016.3 mb - 0.00 in0.0 mm 0.00 in0.0 mm
05:30 AM 77.1°F25.1°C 72.6°F22.6°C 86% 1.2 mph SSE1.9 kmh SSE 2.3 mph3.7 kmh 30.01 in1016.3 mb - 0.00 in0.0 mm 0.00 in0.0 mm
05:40 AM 77.0°F25.0°C 72.8°F22.7°C 87% Calm Calm 2.3 mph3.7 kmh 30.01 in1016.3 mb - 0.00 in0.0 mm 0.00 in0.0 mm
05:50 AM 76.9°F24.9°C 72.7°F22.6°C 87% 1.2 mph SSE1.9 kmh SSE 3.5 mph5.6 kmh 30.01 in1016.3 mb - 0.00 in0.0 mm 0.00 in0.0 mm
06:00 AM 76.7°F24.8°C 72.5°F22.5°C 87% 2.3 mph SSE3.7 kmh SSE 4.6 mph7.4 kmh 30.01 in1016.3 mb - 0.00 in0.0 mm 0.00 in0.0 mm
06:10 AM 76.7°F24.8°C 72.9°F22.7°C 88% 2.3 mph SSE3.7 kmh SSE 4.6 mph7.4 kmh 30.01 in1016.3 mb - 0.00 in0.0 mm 0.00 in0.0 mm
06:20 AM 76.6°F24.8°C 72.8°F22.7°C 88% Calm Calm -- 30.02 in1016.6 mb - 0.00 in0.0 mm 0.00 in0.0 mm
06:30 AM 76.6°F24.8°C 72.8°F22.7°C 88% Calm Calm -- 30.02 in1016.6 mb - 0.00 in0.0 mm 0.00 in0.0 mm
06:40 AM 76.5°F24.7°C 72.7°F22.6°C 88% 2.3 mph SSE3.7 kmh SSE 2.3 mph3.7 kmh 30.02 in1016.6 mb - 0.00 in0.0 mm 0.00 in0.0 mm
06:50 AM 76.5°F24.7°C 72.7°F22.6°C 88% Calm Calm 1.2 mph1.9 kmh 30.02 in1016.6 mb - 0.00 in0.0 mm 0.00 in0.0 mm
07:00 AM 76.5°F24.7°C 72.7°F22.6°C 88% Calm Calm 1.2 mph1.9 kmh 30.03 in1016.9 mb - 0.00 in0.0 mm 0.00 in0.0 mm
07:10 AM 76.6°F24.8°C 73.1°F22.8°C 89% Calm Calm -- 30.03 in1016.9 mb - 0.00 in0.0 mm 0.00 in0.0 mm
07:20 AM 76.8°F24.9°C 73.3°F22.9°C 89% 1.2 mph SSE1.9 kmh SSE 2.3 mph3.7 kmh 30.03 in1016.9 mb - 0.00 in0.0 mm 0.00 in0.0 mm
07:30 AM 77.2°F25.1°C 73.4°F23.0°C 88% 2.3 mph SSE3.7 kmh SSE 4.6 mph7.4 kmh 30.03 in1016.9 mb - 0.00 in0.0 mm 0.00 in0.0 mm
07:40 AM 77.6°F25.3°C 73.8°F23.2°C 88% Calm Calm 2.3 mph3.7 kmh 30.04 in1017.3 mb - 0.00 in0.0 mm 0.00 in0.0 mm
07:50 AM 78.0°F25.6°C 74.1°F23.4°C 88% 1.2 mph SSE1.9 kmh SSE 1.2 mph1.9 kmh 30.04 in1017.3 mb - 0.00 in0.0 mm 0.00 in0.0 mm
08:00 AM 78.5°F25.8°C 74.4°F23.6°C 87% 1.2 mph SSE1.9 kmh SSE 4.6 mph7.4 kmh 30.04 in1017.3 mb - 0.00 in0.0 mm 0.00 in0.0 mm
08:10 AM 79.5°F26.4°C 74.9°F23.8°C 86% Calm Calm 1.2 mph1.9 kmh 30.04 in1017.3 mb - 0.00 in0.0 mm 0.00 in0.0 mm
08:20 AM 80.6°F27.0°C 75.7°F24.3°C 85% 2.3 mph SSE3.7 kmh SSE 3.5 mph5.6 kmh 30.04 in1017.3 mb - 0.00 in0.0 mm 0.00 in0.0 mm
08:30 AM 81.5°F27.5°C 75.5°F24.2°C 82% 3.5 mph SSE5.6 kmh SSE 3.5 mph5.6 kmh 30.04 in1017.3 mb - 0.00 in0.0 mm 0.00 in0.0 mm
08:40 AM 82.1°F27.8°C 75.3°F24.1°C 80% 2.3 mph S3.7 kmh S 5.8 mph9.3 kmh 30.04 in1017.3 mb - 0.00 in0.0 mm 0.00 in0.0 mm
08:50 AM 82.9°F28.3°C 75.7°F24.3°C 79% 4.6 mph S7.4 kmh S 8.1 mph13.0 kmh 30.04 in1017.3 mb - 0.00 in0.0 mm 0.00 in0.0 mm
09:00 AM 83.8°F28.8°C 75.4°F24.1°C 76% 3.5 mph SSW5.6 kmh SSW 4.6 mph7.4 kmh 30.04 in1017.3 mb - 0.00 in0.0 mm 0.00 in0.0 mm
09:10 AM 84.4°F29.1°C 75.6°F24.2°C 75% 3.5 mph S5.6 kmh S 5.8 mph9.3 kmh 30.04 in1017.3 mb - 0.00 in0.0 mm 0.00 in0.0 mm
09:20 AM 85.2°F29.6°C 76.0°F24.4°C 74% 5.8 mph SSE9.3 kmh SSE 9.2 mph14.8 kmh 30.04 in1017.3 mb - 0.00 in0.0 mm 0.00 in0.0 mm
09:30 AM 85.8°F29.9°C 76.6°F24.8°C 74% 3.5 mph SW5.6 kmh SW 3.5 mph5.6 kmh 30.05 in1017.6 mb - 0.00 in0.0 mm 0.00 in0.0 mm
09:40 AM 86.8°F30.4°C 76.2°F24.6°C 71% 4.6 mph S7.4 kmh S 5.8 mph9.3 kmh 30.04 in1017.3 mb - 0.00 in0.0 mm 0.00 in0.0 mm
09:50 AM 87.6°F30.9°C 76.6°F24.8°C 70% 3.5 mph SE5.6 kmh SE 3.5 mph5.6 kmh 30.04 in1017.3 mb - 0.00 in0.0 mm 0.00 in0.0 mm
10:00 AM 87.9°F31.1°C 75.1°F23.9°C 66% 4.6 mph SW7.4 kmh SW 6.9 mph11.1 kmh 30.04 in1017.3 mb - 0.00 in0.0 mm 0.00 in0.0 mm
10:10 AM 88.3°F31.3°C 75.9°F24.4°C 67% 3.5 mph SW5.6 kmh SW 5.8 mph9.3 kmh 30.04 in1017.3 mb - 0.00 in0.0 mm 0.00 in0.0 mm
10:20 AM 88.8°F31.6°C 76.8°F24.9°C 68% 3.5 mph S5.6 kmh S 5.8 mph9.3 kmh 30.04 in1017.3 mb - 0.00 in0.0 mm 0.00 in0.0 mm
10:30 AM 89.2°F31.8°C 75.9°F24.4°C 65% 8.1 mph S13.0 kmh S 11.5 mph18.5 kmh 30.04 in1017.3 mb - 0.00 in0.0 mm 0.00 in0.0 mm
10:40 AM 89.6°F32.0°C 76.3°F24.6°C 65% 4.6 mph SW7.4 kmh SW 5.8 mph9.3 kmh 30.04 in1017.3 mb - 0.00 in0.0 mm 0.00 in0.0 mm
10:50 AM 90.3°F32.4°C 76.5°F24.7°C 64% 3.5 mph SSW5.6 kmh SSW 8.1 mph13.0 kmh 30.04 in1017.3 mb - 0.00 in0.0 mm 0.00 in0.0 mm
11:00 AM 90.6°F32.6°C 75.8°F24.3°C 62% 4.6 mph S7.4 kmh S 8.1 mph13.0 kmh 30.04 in1017.3 mb - 0.00 in0.0 mm 0.00 in0.0 mm
11:10 AM 91.1°F32.8°C 76.3°F24.6°C 62% 4.6 mph SW7.4 kmh SW 11.5 mph18.5 kmh 30.04 in1017.3 mb - 0.00 in0.0 mm 0.00 in0.0 mm
11:20 AM 91.5°F33.1°C 76.1°F24.5°C 61% 3.5 mph SW5.6 kmh SW 4.6 mph7.4 kmh 30.04 in1017.3 mb - 0.00 in0.0 mm 0.00 in0.0 mm
11:30 AM 91.8°F33.2°C 76.4°F24.7°C 61% 3.5 mph SW5.6 kmh SW 3.5 mph5.6 kmh 30.03 in1016.9 mb - 0.00 in0.0 mm 0.00 in0.0 mm
11:40 AM 92.1°F33.4°C 75.2°F24.0°C 58% 3.5 mph SSW5.6 kmh SSW 5.8 mph9.3 kmh 30.03 in1016.9 mb - 0.00 in0.0 mm 0.00 in0.0 mm
11:50 AM 92.8°F33.8°C 75.8°F24.3°C 58% 3.5 mph SW5.6 kmh SW 9.2 mph14.8 kmh 30.03 in1016.9 mb - 0.00 in0.0 mm 0.00 in0.0 mm
12:00 PM 93.1°F33.9°C 76.1°F24.5°C 58% 2.3 mph SSW3.7 kmh SSW 3.5 mph5.6 kmh 30.03 in1016.9 mb - 0.00 in0.0 mm 0.00 in0.0 mm
12:10 PM 93.4°F34.1°C 75.9°F24.4°C 57% 4.6 mph WSW7.4 kmh WSW 8.1 mph13.0 kmh 30.03 in1016.9 mb - 0.00 in0.0 mm 0.00 in0.0 mm
12:20 PM 93.9°F34.4°C 76.9°F24.9°C 58% 4.6 mph S7.4 kmh S 9.2 mph14.8 kmh 30.02 in1016.6 mb - 0.00 in0.0 mm 0.00 in0.0 mm
12:30 PM 93.8°F34.3°C 75.7°F24.3°C 56% 3.5 mph SSE5.6 kmh SSE 8.1 mph13.0 kmh 30.02 in1016.6 mb - 0.00 in0.0 mm 0.00 in0.0 mm
12:40 PM 94.6°F34.8°C 77.0°F25.0°C 57% 6.9 mph SSE11.1 kmh SSE 9.2 mph14.8 kmh 30.02 in1016.6 mb - 0.00 in0.0 mm 0.00 in0.0 mm
12:50 PM 94.4°F34.7°C 76.3°F24.6°C 56% 6.9 mph S11.1 kmh S 9.2 mph14.8 kmh 30.02 in1016.6 mb - 0.00 in0.0 mm 0.00 in0.0 mm
01:00 PM 95.0°F35.0°C 75.2°F24.0°C 53% 3.5 mph SW5.6 kmh SW 4.6 mph7.4 kmh 30.02 in1016.6 mb - 0.00 in0.0 mm 0.00 in0.0 mm
01:10 PM 94.9°F34.9°C 75.1°F23.9°C 53% 9.2 mph S14.8 kmh S 12.7 mph20.4 kmh 30.01 in1016.3 mb - 0.00 in0.0 mm 0.00 in0.0 mm
01:20 PM 95.1°F35.1°C 73.5°F23.1°C 50% 5.8 mph SW9.3 kmh SW 9.2 mph14.8 kmh 30.01 in1016.3 mb - 0.00 in0.0 mm 0.00 in0.0 mm
01:30 PM 95.8°F35.4°C 74.1°F23.4°C 50% 6.9 mph S11.1 kmh S 9.2 mph14.8 kmh 30.01 in1016.3 mb - 0.00 in0.0 mm 0.00 in0.0 mm
01:40 PM 96.0°F35.6°C 74.4°F23.6°C 50% 4.6 mph S7.4 kmh S 9.2 mph14.8 kmh 30.00 in1015.9 mb - 0.00 in0.0 mm 0.00 in0.0 mm
01:50 PM 95.9°F35.5°C 74.8°F23.8°C 51% 3.5 mph S5.6 kmh S 8.1 mph13.0 kmh 30.00 in1015.9 mb - 0.00 in0.0 mm 0.00 in0.0 mm
02:00 PM 95.2°F35.1°C 74.2°F23.4°C 51% 5.8 mph SSE9.3 kmh SSE 5.8 mph9.3 kmh 30.00 in1015.9 mb - 0.00 in0.0 mm 0.00 in0.0 mm
02:10 PM 96.2°F35.7°C 73.3°F22.9°C 48% 6.9 mph S11.1 kmh S 12.7 mph20.4 kmh 30.00 in1015.9 mb - 0.00 in0.0 mm 0.00 in0.0 mm
02:20 PM 96.5°F35.8°C 73.0°F22.8°C 47% 8.1 mph SE13.0 kmh SE 11.5 mph18.5 kmh 29.99 in1015.6 mb - 0.00 in0.0 mm 0.00 in0.0 mm
02:30 PM 96.7°F35.9°C 73.2°F22.9°C 47% 3.5 mph S5.6 kmh S 5.8 mph9.3 kmh 29.98 in1015.2 mb - 0.00 in0.0 mm 0.00 in0.0 mm
02:40 PM 96.4°F35.8°C 71.6°F22.0°C 45% 4.6 mph S7.4 kmh S 11.5 mph18.5 kmh 29.98 in1015.2 mb - 0.00 in0.0 mm 0.00 in0.0 mm
02:50 PM 96.7°F35.9°C 71.2°F21.8°C 44% 4.6 mph S7.4 kmh S 9.2 mph14.8 kmh 29.98 in1015.2 mb - 0.00 in0.0 mm 0.00 in0.0 mm
03:00 PM 96.9°F36.1°C 70.7°F21.5°C 43% 6.9 mph SE11.1 kmh SE 9.2 mph14.8 kmh 29.98 in1015.2 mb - 0.00 in0.0 mm 0.00 in0.0 mm
03:10 PM 97.3°F36.3°C 72.4°F22.4°C 45% 6.9 mph S11.1 kmh S 15.0 mph24.1 kmh 29.98 in1015.2 mb - 0.00 in0.0 mm 0.00 in0.0 mm
03:20 PM 97.4°F36.3°C 71.8°F22.1°C 44% 5.8 mph S9.3 kmh S 8.1 mph13.0 kmh 29.98 in1015.2 mb - 0.00 in0.0 mm 0.00 in0.0 mm
03:30 PM 96.9°F36.1°C 71.4°F21.9°C 44% 4.6 mph SSW7.4 kmh SSW 6.9 mph11.1 kmh 29.97 in1014.9 mb - 0.00 in0.0 mm 0.00 in0.0 mm
03:40 PM 96.9°F36.1°C 71.4°F21.9°C 44% 4.6 mph S7.4 kmh S 4.6 mph7.4 kmh 29.97 in1014.9 mb - 0.00 in0.0 mm 0.00 in0.0 mm
03:50 PM 97.1°F36.2°C 71.5°F21.9°C 44% 9.2 mph S14.8 kmh S 15.0 mph24.1 kmh 29.96 in1014.6 mb - 0.00 in0.0 mm 0.00 in0.0 mm
04:00 PM 97.6°F36.4°C 71.3°F21.8°C 43% 5.8 mph S9.3 kmh S 9.2 mph14.8 kmh 29.96 in1014.6 mb - 0.00 in0.0 mm 0.00 in0.0 mm
04:10 PM 97.6°F36.4°C 71.3°F21.8°C 43% 3.5 mph WSW5.6 kmh WSW 9.2 mph14.8 kmh 29.96 in1014.6 mb - 0.00 in0.0 mm 0.00 in0.0 mm
04:20 PM 97.5°F36.4°C 71.2°F21.8°C 43% 4.6 mph S7.4 kmh S 9.2 mph14.8 kmh 29.96 in1014.6 mb - 0.00 in0.0 mm 0.00 in0.0 mm
04:30 PM 97.4°F36.3°C 71.8°F22.1°C 44% 6.9 mph S11.1 kmh S 15.0 mph24.1 kmh 29.96 in1014.6 mb - 0.00 in0.0 mm 0.00 in0.0 mm
04:40 PM 97.5°F36.4°C 72.6°F22.6°C 45% 6.9 mph S11.1 kmh S 11.5 mph18.5 kmh 29.95 in1014.2 mb - 0.00 in0.0 mm 0.00 in0.0 mm
04:50 PM 97.6°F36.4°C 71.3°F21.8°C 43% 5.8 mph S9.3 kmh S 9.2 mph14.8 kmh 29.95 in1014.2 mb - 0.00 in0.0 mm 0.00 in0.0 mm
05:00 PM 97.8°F36.6°C 72.2°F22.3°C 44% 5.8 mph S9.3 kmh S 15.0 mph24.1 kmh 29.95 in1014.2 mb - 0.00 in0.0 mm 0.00 in0.0 mm
05:10 PM 97.5°F36.4°C 70.6°F21.4°C 42% 6.9 mph SSE11.1 kmh SSE 12.7 mph20.4 kmh 29.95 in1014.2 mb - 0.00 in0.0 mm 0.00 in0.0 mm
05:20 PM 97.0°F36.1°C 71.5°F21.9°C 44% 6.9 mph S11.1 kmh S 9.2 mph14.8 kmh 29.95 in1014.2 mb - 0.00 in0.0 mm 0.00 in0.0 mm
05:30 PM 97.2°F36.2°C 72.3°F22.4°C 45% 5.8 mph S9.3 kmh S 16.1 mph25.9 kmh 29.95 in1014.2 mb - 0.00 in0.0 mm 0.00 in0.0 mm
05:50 PM 97.3°F36.3°C 71.7°F22.1°C 44% 6.9 mph SSE11.1 kmh SSE 10.4 mph16.7 kmh 29.94 in1013.9 mb - 0.00 in0.0 mm 0.00 in0.0 mm
06:00 PM 97.1°F36.2°C 72.2°F22.3°C 45% 4.6 mph SSE7.4 kmh SSE 6.9 mph11.1 kmh 29.94 in1013.9 mb - 0.00 in0.0 mm 0.00 in0.0 mm
06:10 PM 96.8°F36.0°C 72.0°F22.2°C 45% 4.6 mph S7.4 kmh S 9.2 mph14.8 kmh 29.94 in1013.9 mb - 0.00 in0.0 mm 0.00 in0.0 mm
06:20 PM 96.5°F35.8°C 71.7°F22.1°C 45% 6.9 mph SSE11.1 kmh SSE 9.2 mph14.8 kmh 29.93 in1013.5 mb - 0.00 in0.0 mm 0.00 in0.0 mm
06:30 PM 96.5°F35.8°C 71.7°F22.1°C 45% 5.8 mph SE9.3 kmh SE 9.2 mph14.8 kmh 29.94 in1013.9 mb - 0.00 in0.0 mm 0.00 in0.0 mm
06:40 PM 96.2°F35.7°C 70.7°F21.5°C 44% 8.1 mph SE13.0 kmh SE 11.5 mph18.5 kmh 29.94 in1013.9 mb - 0.00 in0.0 mm 0.00 in0.0 mm
06:50 PM 96.0°F35.6°C 71.9°F22.2°C 46% 5.8 mph SSE9.3 kmh SSE 6.9 mph11.1 kmh 29.93 in1013.5 mb - 0.00 in0.0 mm 0.00 in0.0 mm
07:00 PM 95.9°F35.5°C 71.8°F22.1°C 46% 5.8 mph SSE9.3 kmh SSE 8.1 mph13.0 kmh 29.93 in1013.5 mb - 0.00 in0.0 mm 0.00 in0.0 mm
07:10 PM 95.5°F35.3°C 71.4°F21.9°C 46% 5.8 mph SSE9.3 kmh SSE 8.1 mph13.0 kmh 29.93 in1013.5 mb - 0.00 in0.0 mm 0.00 in0.0 mm
07:20 PM 95.1°F35.1°C 71.7°F22.1°C 47% 3.5 mph S5.6 kmh S 6.9 mph11.1 kmh 29.93 in1013.5 mb - 0.00 in0.0 mm 0.00 in0.0 mm
07:30 PM 94.5°F34.7°C 71.8°F22.1°C 48% 5.8 mph SSE9.3 kmh SSE 10.4 mph16.7 kmh 29.93 in1013.5 mb - 0.00 in0.0 mm 0.00 in0.0 mm
07:40 PM 94.1°F34.5°C 72.0°F22.2°C 49% 5.8 mph SSE9.3 kmh SSE 9.2 mph14.8 kmh 29.93 in1013.5 mb - 0.00 in0.0 mm 0.00 in0.0 mm
07:50 PM 93.6°F34.2°C 71.6°F22.0°C 49% 5.8 mph SE9.3 kmh SE 10.4 mph16.7 kmh 29.93 in1013.5 mb - 0.00 in0.0 mm 0.00 in0.0 mm
08:00 PM 93.1°F33.9°C 71.7°F22.1°C 50% 6.9 mph SSE11.1 kmh SSE 8.1 mph13.0 kmh 29.93 in1013.5 mb - 0.00 in0.0 mm 0.00 in0.0 mm
08:10 PM 92.5°F33.6°C 71.7°F22.1°C 51% 3.5 mph S5.6 kmh S 3.5 mph5.6 kmh 29.93 in1013.5 mb - 0.00 in0.0 mm 0.00 in0.0 mm
08:20 PM 91.9°F33.3°C 72.3°F22.4°C 53% 3.5 mph S5.6 kmh S 8.1 mph13.0 kmh 29.93 in1013.5 mb - 0.00 in0.0 mm 0.00 in0.0 mm
08:30 PM 91.2°F32.9°C 72.3°F22.4°C 54% 3.5 mph SE5.6 kmh SE 4.6 mph7.4 kmh 29.93 in1013.5 mb - 0.00 in0.0 mm 0.00 in0.0 mm
08:40 PM 90.6°F32.6°C 72.3°F22.4°C 55% 3.5 mph SSE5.6 kmh SSE 6.9 mph11.1 kmh 29.93 in1013.5 mb - 0.00 in0.0 mm 0.00 in0.0 mm
08:50 PM 90.1°F32.3°C 72.8°F22.7°C 57% 3.5 mph SSE5.6 kmh SSE 9.2 mph14.8 kmh 29.93 in1013.5 mb - 0.00 in0.0 mm 0.00 in0.0 mm
09:00 PM 89.6°F32.0°C 72.9°F22.7°C 58% 2.3 mph SSE3.7 kmh SSE 3.5 mph5.6 kmh 29.93 in1013.5 mb - 0.00 in0.0 mm 0.00 in0.0 mm
09:10 PM 89.1°F31.7°C 72.9°F22.7°C 59% 5.8 mph SSE9.3 kmh SSE 8.1 mph13.0 kmh 29.93 in1013.5 mb - 0.00 in0.0 mm 0.00 in0.0 mm
09:20 PM 88.7°F31.5°C 73.0°F22.8°C 60% 2.3 mph SE3.7 kmh SE 3.5 mph5.6 kmh 29.93 in1013.5 mb - 0.00 in0.0 mm 0.00 in0.0 mm
09:30 PM 88.2°F31.2°C 73.0°F22.8°C 61% 4.6 mph S7.4 kmh S 6.9 mph11.1 kmh 29.94 in1013.9 mb - 0.00 in0.0 mm 0.00 in0.0 mm
09:40 PM 87.9°F31.1°C 73.3°F22.9°C 62% 4.6 mph S7.4 kmh S 11.5 mph18.5 kmh 29.94 in1013.9 mb - 0.00 in0.0 mm 0.00 in0.0 mm
09:50 PM 87.6°F30.9°C 73.4°F23.0°C 63% 4.6 mph SE7.4 kmh SE 9.2 mph14.8 kmh 29.94 in1013.9 mb - 0.00 in0.0 mm 0.00 in0.0 mm
10:00 PM 87.4°F30.8°C 73.3°F22.9°C 63% 4.6 mph SSE7.4 kmh SSE 5.8 mph9.3 kmh 29.95 in1014.2 mb - 0.00 in0.0 mm 0.00 in0.0 mm
10:10 PM 87.1°F30.6°C 73.4°F23.0°C 64% 4.6 mph S7.4 kmh S 10.4 mph16.7 kmh 29.95 in1014.2 mb - 0.00 in0.0 mm 0.00 in0.0 mm
10:20 PM 86.7°F30.4°C 73.5°F23.1°C 65% 3.5 mph S5.6 kmh S 6.9 mph11.1 kmh 29.95 in1014.2 mb - 0.00 in0.0 mm 0.00 in0.0 mm
10:30 PM 86.5°F30.3°C 73.8°F23.2°C 66% 5.8 mph S9.3 kmh S 5.8 mph9.3 kmh 29.96 in1014.6 mb - 0.00 in0.0 mm 0.00 in0.0 mm
10:40 PM 86.3°F30.2°C 73.6°F23.1°C 66% 4.6 mph S7.4 kmh S 5.8 mph9.3 kmh 29.96 in1014.6 mb - 0.00 in0.0 mm 0.00 in0.0 mm
10:50 PM 86.1°F30.1°C 73.9°F23.3°C 67% 2.3 mph S3.7 kmh S 3.5 mph5.6 kmh 29.96 in1014.6 mb - 0.00 in0.0 mm 0.00 in0.0 mm
11:00 PM 85.8°F29.9°C 73.6°F23.1°C 67% 4.6 mph SSE7.4 kmh SSE 10.4 mph16.7 kmh 29.96 in1014.6 mb - 0.00 in0.0 mm 0.00 in0.0 mm
11:10 PM 85.5°F29.7°C 73.7°F23.2°C 68% 6.9 mph S11.1 kmh S 9.2 mph14.8 kmh 29.97 in1014.9 mb - 0.00 in0.0 mm 0.00 in0.0 mm
11:20 PM 85.4°F29.7°C 73.6°F23.1°C 68% 3.5 mph S5.6 kmh S 5.8 mph9.3 kmh 29.97 in1014.9 mb - 0.00 in0.0 mm 0.00 in0.0 mm
11:30 PM 85.1°F29.5°C 73.3°F22.9°C 68% 3.5 mph S5.6 kmh S 4.6 mph7.4 kmh 29.97 in1014.9 mb - 0.00 in0.0 mm 0.00 in0.0 mm
11:40 PM 84.8°F29.3°C 73.5°F23.1°C 69% 3.5 mph S5.6 kmh S 5.8 mph9.3 kmh 29.98 in1015.2 mb - 0.00 in0.0 mm 0.00 in0.0 mm
11:50 PM 84.5°F29.2°C 73.6°F23.1°C 70% 3.5 mph S5.6 kmh S 3.5 mph5.6 kmh 29.98 in1015.2 mb - 0.00 in0.0 mm 0.00 in0.0 mm